Impacts TAF Board INFO
FOR SITUATIONAL AWARENESS. NOT TO BE USED FOR FLIGHT PLANNING PURPOSES.
IDs:

KLAX - Los Angeles Intl, CA, US

Issued at 2340 UTC 17 Aug 2018
Updated at 0127 UTC 18 Aug 2018
Potential Impact None Slight Moderate High
Time<<19/02Z 19/03Z 19/04Z 19/05Z 19/06Z 19/07Z 19/08Z 19/09Z 19/10Z 19/11Z 19/12Z 19/13Z 19/14Z
Type PRVL PRVL PRVL PRVL
VIS >6 >6 >6 >6
CIG -- -- -- --
Cover SCT SCT SCT SCT
FltCat VFR VFR VFR VFR
WX -- -- -- --
WDir 260 260 260 260
WSpd 11 11 6 6
WGst -- -- -- --

Raw TAF
KLAX 172340Z 1800/1906 25012KT P6SM BKN013
  TEMPO 1800/1802 SCT013
  FM180200 25007KT P6SM OVC010
  FM181100 26008KT 6SM HZ OVC015
  FM181900 26011KT P6SM SCT015
  FM190400 26006KT P6SM SCT010


METAR Board
Radar Display
Forecast Discussion

FOR SITUATIONAL AWARENESS. NOT TO BE USED FOR FLIGHT PLANNING PURPOSES.